Argenta, Texas
Current Conditions -  °F | °C
As of 10:35 AM on Thursday 30 Oct 2014 (Local Time) from KRBO Reporting Station
Haze Haze  
Wind Chill: 24°   Ceiling: Unl
Heat Index: 24°   Visibility: 5mi
Dew Point: 23°   Wind: 5mph
Humidity: 96%   Direction: 70°ENE
Pressure: 30.11"   Gusts: NA
Location:  28.0654°N, 97.7489°W
Report Text: KRBO 301535Z AUTO 07004KT 5SM BR SCT001 24/23 A3011 RMK AO2 T02390232
Loading
Personal Weather Stations






























Interactive Weather Map
Tropical Storm Tracking
New forecast layout! Learn more

10-Day Weather Forecast

Advertisements
Track Severe Weather on mobile